Data for 10/26/2010

Time Sea-Level Adjusted Pressure Absolute Pressure Temperature Relative Humidity Dew Point   
(mb) (inHg) (mb) (inHg) (C) (F) (%) (C) (F)
00:05 1008 29.77 837 24.72 2.9 37.2 63 -3.4 25.9
00:10 1008 29.77 837 24.72 2.9 37.2 61 -3.9 25
00:15 1008 29.77 837 24.72 2.9 37.3 61 -3.9 24.9
00:20 1008 29.77 837 24.72 2.9 37.2 61 -3.9 24.9
00:25 1008 29.77 837 24.72 2.6 36.7 63 -3.8 25.2
00:30 1008 29.77 837 24.72 2.4 36.3 62 -4.2 24.5
00:35 1007 29.74 837 24.72 2.6 36.6 61 -4.2 24.4
00:40 1007 29.74 837 24.72 2.7 36.9 59 -4.4 24
00:45 1007 29.74 837 24.72 2.8 37 61 -3.9 24.9
00:50 1007 29.74 837 24.72 2.6 36.7 66 -3.1 26.4
00:55 1008 29.77 837 24.72 2.2 35.9 68 -3.2 26.3
01:00 1007 29.74 837 24.72 2.1 35.8 65 -3.7 25.3
01:05 1007 29.74 837 24.72 2.2 36 66 -3.4 25.9
01:10 1007 29.74 837 24.72 2.1 35.9 62 -4.3 24.3
01:15 1007 29.74 837 24.72 2.5 36.5 63 -3.9 25
01:20 1007 29.74 837 24.72 2.6 36.7 61 -4.2 24.5
01:25 1007 29.74 837 24.72 2.7 36.8 63 -3.6 25.5
01:30 1007 29.74 837 24.72 2.7 36.9 62 -3.8 25.2
01:35 1007 29.74 837 24.72 2.5 36.6 63 -3.9 25
01:40 1008 29.77 837 24.72 2.2 36 66 -3.5 25.7
01:45 1008 29.77 837 24.72 2 35.5 66 -3.8 25.2
01:50 1008 29.77 837 24.72 2.1 35.7 65 -3.9 25.1
01:55 1007 29.74 837 24.72 2.1 35.8 62 -4.3 24.2
02:00 1007 29.74 837 24.72 2.2 36 63 -4 24.7
02:05 1007 29.74 837 24.72 2.2 35.9 65 -3.7 25.3
02:10 1007 29.74 837 24.72 2.1 35.8 62 -4.5 24
02:15 1007 29.74 837 24.72 2.3 36.1 61 -4.4 24
02:20 1007 29.74 837 24.72 2.2 36 68 -3.1 26.5
02:25 1007 29.74 837 24.72 1.8 35.2 70 -3.2 26.3
02:30 1008 29.77 837 24.72 1.7 35.1 68 -3.6 25.6
02:35 1008 29.77 837 24.72 1.5 34.7 69 -3.6 25.6
02:40 1007 29.74 837 24.72 1.6 34.8 68 -3.7 25.4
02:45 1007 29.74 837 24.72 1.6 34.9 66 -4 24.7
02:50 1007 29.74 837 24.72 1.8 35.3 63 -4.5 24
02:55 1008 29.77 837 24.72 2.1 35.9 63 -4.3 24.3
03:00 1008 29.77 837 24.72 2.1 35.8 65 -3.8 25.2
03:05 1008 29.77 837 24.72 1.9 35.4 68 -3.4 26
03:10 1008 29.77 837 24.72 1.7 35 67 -3.7 25.3
03:15 1008 29.77 837 24.72 1.7 35.1 65 -4.1 24.7
03:20 1008 29.77 837 24.72 1.9 35.4 66 -3.9 25
03:25 1008 29.77 837 24.72 1.8 35.3 65 -4 24.8
03:30 1008 29.77 837 24.72 1.8 35.3 66 -3.9 25
03:35 1008 29.77 837 24.72 1.9 35.4 63 -4.4 24
03:40 1008 29.77 837 24.72 2 35.7 63 -4.3 24.2
03:45 1008 29.77 837 24.72 2.1 35.8 64 -4.1 24.6
03:50 1008 29.77 837 24.72 1.8 35.3 74 -2.4 27.7
03:55 1008 29.77 837 24.72 1.2 34.2 74 -2.9 26.8
04:00 1008 29.77 837 24.72 1.4 34.4 67 -4.2 24.5
04:05 1008 29.77 837 24.72 1.7 35.1 71 -3 26.6
04:10 1008 29.77 837 24.72 1.6 34.9 71 -3.1 26.4
04:15 1007 29.74 837 24.72 1.7 35.1 62 -4.7 23.5
04:20 1008 29.77 837 24.72 2 35.6 63 -4.4 24.1
04:25 1007 29.74 837 24.72 1.9 35.5 61 -4.9 23.2
04:30 1008 29.77 837 24.72 2.1 35.8 59 -5.1 22.9
04:35 1008 29.77 837 24.72 2.1 35.8 63 -4.2 24.4
04:40 1008 29.77 837 24.72 1.8 35.2 65 -4.1 24.6
04:45 1008 29.77 837 24.72 1.6 34.8 68 -3.7 25.4
04:50 1008 29.77 837 24.72 1.5 34.7 67 -4 24.9
04:55 1008 29.77 837 24.72 1.4 34.6 71 -3.3 26
05:00 1008 29.77 837 24.72 1.2 34.2 72 -3.2 26.2
05:05 1008 29.77 837 24.72 1.1 33.9 72 -3.4 25.8
05:10 1008 29.77 837 24.72 0.9 33.7 76 -2.9 26.8
05:15 1007 29.74 837 24.72 0.8 33.4 74 -3.3 26.1
05:20 1007 29.74 837 24.72 0.9 33.6 68 -4.3 24.2
05:25 1007 29.74 837 24.72 1.3 34.4 65 -4.5 23.9
05:30 1007 29.74 837 24.72 1.6 34.9 64 -4.6 23.8
05:35 1007 29.74 837 24.72 1.7 35.1 69 -3.4 25.9
05:40 1007 29.74 837 24.72 1.5 34.6 72 -3.1 26.4
05:45 1007 29.74 837 24.72 1.2 34.2 77 -2.4 27.7
05:50 1007 29.74 837 24.72 0.4 32.6 83 -2.2 28.1
05:55 1007 29.74 836 24.69 -0.1 31.8 86 -2.1 28.1
06:00 1007 29.74 837 24.72 -0.3 31.5 88 -2 28.3
06:05 1007 29.74 837 24.72 -0.4 31.3 88 -2.1 28.2
06:10 1007 29.74 837 24.72 -0.4 31.2 88 -2.2 28
06:15 1007 29.74 837 24.72 -0.3 31.4 85 -2.6 27.3
06:20 1007 29.74 837 24.72 -0.1 31.8 84 -2.5 27.6
06:25 1007 29.74 837 24.72 0.2 32.3 84 -2.3 27.9
06:30 1007 29.74 837 24.72 0.8 33.4 67 -4.6 23.7
06:35 1007 29.74 837 24.72 1.5 34.8 70 -3.3 26
06:40 1007 29.74 837 24.72 1.5 34.7 72 -3.1 26.4
06:45 1007 29.74 837 24.72 1.3 34.3 71 -3.3 26
06:50 1007 29.74 836 24.69 1.4 34.5 72 -3.2 26.3
06:55 1007 29.74 836 24.69 1.4 34.6 71 -3.2 26.3
07:00 1007 29.74 836 24.69 1.4 34.6 73 -3 26.7
07:05 1007 29.74 836 24.69 1.4 34.5 74 -2.7 27.1
07:10 1007 29.74 837 24.72 1.3 34.4 75 -2.6 27.3
07:15 1007 29.74 837 24.72 1.2 34.2 74 -2.9 26.8
07:20 1007 29.74 837 24.72 1.2 34.2 74 -2.9 26.9
07:25 1007 29.74 837 24.72 1.2 34.2 73 -3.1 26.4
07:30 1007 29.74 837 24.72 1.3 34.4 72 -3.2 26.2
07:35 1007 29.74 837 24.72 1.4 34.4 72 -3.2 26.2
07:40 1007 29.74 836 24.69 1.3 34.3 72 -3.2 26.2
07:45 1007 29.74 836 24.69 1.3 34.4 72 -3.2 26.3
07:50 1007 29.74 836 24.69 1.4 34.5 71 -3.3 26.1
07:55 1007 29.74 836 24.69 1.4 34.6 71 -3.2 26.3
08:00 1007 29.74 836 24.69 1.4 34.5 70 -3.4 25.9
08:05 1007 29.74 836 24.69 1.5 34.6 70 -3.5 25.8
08:10 1007 29.74 836 24.69 1.6 34.9 70 -3.3 26
08:15 1007 29.74 837 24.72 1.7 35.1 71 -3 26.7
08:20 1007 29.74 837 24.72 1.7 35.1 72 -2.9 26.9
08:25 1007 29.74 837 24.72 1.6 34.9 70 -3.2 26.2
08:30 1007 29.74 837 24.72 1.6 34.9 70 -3.3 26.1
08:35 1007 29.74 837 24.72 1.6 35 69 -3.4 25.8
08:40 1008 29.77 837 24.72 1.7 35.1 68 -3.5 25.7
08:45 1008 29.77 837 24.72 1.6 34.9 70 -3.2 26.2
08:50 1008 29.77 837 24.72 1.5 34.8 70 -3.4 25.9
08:55 1008 29.77 837 24.72 1.5 34.7 68 -3.7 25.4
09:00 1008 29.77 837 24.72 1.7 35.1 66 -4 24.8
09:05 1008 29.77 837 24.72 1.9 35.3 62 -4.6 23.7
09:10 1008 29.77 837 24.72 2.1 35.8 60 -4.8 23.3
09:15 1008 29.77 837 24.72 2.3 36.1 59 -4.8 23.3
09:20 1008 29.77 837 24.72 2.3 36.2 59 -4.8 23.3
09:25 1008 29.77 837 24.72 2.4 36.4 59 -4.9 23.2
09:30 1008 29.77 837 24.72 2.5 36.5 59 -4.6 23.6
09:35 1008 29.77 837 24.72 2.6 36.6 58 -4.9 23.2
09:40 1008 29.77 837 24.72 2.6 36.7 58 -4.8 23.3
09:45 1008 29.77 837 24.72 2.7 36.8 56 -5.3 22.5
09:50 1008 29.77 837 24.72 2.7 36.9 54 -5.7 21.7
09:55 1008 29.77 837 24.72 2.8 37 53 -6 21.3
10:00 1008 29.77 837 24.72 3 37.4 51 -6.1 21
10:05 1008 29.77 837 24.72 3 37.4 57 -4.7 23.5
10:10 1008 29.77 837 24.72 2.8 37.1 55 -5.4 22.4
10:15 1008 29.77 837 24.72 2.9 37.2 57 -4.9 23.1
10:20 1008 29.77 837 24.72 2.9 37.2 57 -4.8 23.3
10:25 1008 29.77 837 24.72 3.1 37.5 57 -4.7 23.5
10:30 1008 29.77 837 24.72 3.3 37.9 49 -6.4 20.4
10:35 1008 29.77 837 24.72 3.5 38.2 49 -6.3 20.7
10:40 1008 29.77 837 24.72 3.5 38.4 48 -6.4 20.6
10:45 1008 29.77 837 24.72 3.5 38.3 48 -6.5 20.3
10:50 1008 29.77 837 24.72 3.5 38.4 49 -6.1 20.9
10:55 1008 29.77 837 24.72 3.5 38.2 47 -6.8 19.8
11:00 1008 29.77 837 24.72 3.4 38.1 47 -6.9 19.5
11:05 1008 29.77 837 24.72 3.5 38.3 48 -6.4 20.4
11:10 1008 29.77 837 24.72 3.6 38.5 52 -5.3 22.5
11:15 1008 29.77 837 24.72 3.5 38.4 47 -6.8 19.7
11:20 1008 29.77 837 24.72 3.6 38.5 48 -6.5 20.4
11:25 1008 29.77 837 24.72 3.6 38.5 46 -6.8 19.7
11:30 1008 29.77 837 24.72 3.6 38.5 47 -6.8 19.8
11:35 1008 29.77 837 24.72 3.8 38.8 45 -7.1 19.2
11:40 1008 29.77 837 24.72 3.6 38.5 45 -7.3 18.9
11:45 1008 29.77 837 24.72 3.6 38.4 45 -7.2 19.1
11:50 1008 29.77 837 24.72 3.6 38.5 46 -7.1 19.3
11:55 1008 29.77 837 24.72 3.8 38.8 44 -7.5 18.6
12:00 1008 29.77 837 24.72 4 39.1 41 -8 17.5
12:05 1008 29.77 837 24.72 3.9 39.1 42 -7.9 17.8
12:10 1008 29.77 837 24.72 3.9 39 41 -8.2 17.2
12:15 1008 29.77 837 24.72 3.8 38.9 42 -7.9 17.8
12:20 1008 29.77 837 24.72 3.9 39 43 -7.7 18.1
12:25 1008 29.77 837 24.72 3.9 39 42 -7.8 17.9
12:30 1008 29.77 837 24.72 4 39.1 41 -8.1 17.4
12:35 1008 29.77 837 24.72 3.9 39 40 -8.5 16.7
12:40 1008 29.77 837 24.72 4.3 39.7 39 -8.6 16.5
12:45 1008 29.77 837 24.72 4.8 40.6 37 -8.6 16.5
12:50 1008 29.77 837 24.72 5.3 41.6 37 -8.4 16.9
12:55 1008 29.77 837 24.72 5.1 41.2 35 -9.2 15.4
13:00 1008 29.77 837 24.72 5 41.1 34 -9.5 14.8
13:05 1008 29.77 837 24.72 5.4 41.7 34 -9.2 15.4
13:10 1008 29.77 837 24.72 5.3 41.6 34 -9.4 15.1
13:15 1008 29.77 837 24.72 5.5 41.8 33 -9.7 14.6
13:20 1008 29.77 837 24.72 5.7 42.2 32 -9.8 14.3
13:25 1008 29.77 837 24.72 5.9 42.6 30 -10.3 13.5
13:30 1008 29.77 837 24.72 5.6 42 32 -9.9 14.2
13:35 1008 29.77 837 24.72 5.2 41.4 33 -9.9 14.2
13:40 1008 29.77 837 24.72 5.2 41.3 35 -9.1 15.5
13:45 1008 29.77 837 24.72 5.1 41.2 33 -9.9 14.2
13:50 1008 29.77 837 24.72 5 41 32 -10.3 13.4
13:55 1008 29.77 837 24.72 4.9 40.8 34 -9.8 14.4
14:00 1008 29.77 838 24.75 4.5 40.1 34 -10 14
14:05 1008 29.77 838 24.75 4.4 40 39 -8.4 16.8
14:10 1008 29.77 838 24.75 4.3 39.8 42 -7.4 18.7
14:15 1008 29.77 838 24.75 4 39.2 45 -7 19.5
14:20 1008 29.77 838 24.75 3.9 38.9 45 -7 19.3
14:25 1009 29.8 838 24.75 3.7 38.7 46 -6.9 19.6
14:30 1009 29.8 838 24.75 3.6 38.4 45 -7.4 18.6
14:35 1009 29.8 838 24.75 3.4 38.1 45 -7.4 18.6
14:40 1009 29.8 838 24.75 3.4 38 47 -7 19.4
14:45 1009 29.8 838 24.75 3.2 37.8 48 -6.8 19.8
14:50 1009 29.8 838 24.75 3.2 37.8 49 -6.4 20.4
14:55 1009 29.8 838 24.75 2.8 37 55 -5.5 22.2
15:00 1009 29.8 838 24.75 2.6 36.6 51 -6.5 20.4
15:05 1009 29.8 838 24.75 2.8 37.1 49 -6.8 19.7
15:10 1009 29.8 838 24.75 3 37.4 48 -6.8 19.7
15:15 1009 29.8 838 24.75 3.2 37.8 48 -6.7 19.9
15:20 1009 29.8 838 24.75 3.4 38.2 46 -7.1 19.2
15:25 1009 29.8 838 24.75 3.6 38.4 44 -7.5 18.4
15:30 1009 29.8 838 24.75 3.6 38.5 44 -7.5 18.5
15:35 1009 29.8 838 24.75 3.7 38.7 45 -7.1 19.1
15:40 1009 29.8 838 24.75 3.7 38.7 43 -7.6 18.3
15:45 1009 29.8 838 24.75 3.9 38.9 42 -7.9 17.8
15:50 1009 29.8 838 24.75 4.1 39.3 41 -7.9 17.7
15:55 1009 29.8 839 24.78 4.1 39.3 42 -7.7 18.1
16:00 1009 29.8 839 24.78 4.1 39.4 42 -7.6 18.3
16:05 1009 29.8 839 24.78 4.2 39.5 41 -7.8 17.9
16:10 1009 29.8 839 24.78 4.1 39.3 42 -7.7 18.1
16:15 1010 29.83 839 24.78 4 39.1 42 -7.8 17.9
16:20 1010 29.83 839 24.78 3.8 38.9 42 -8 17.5
16:25 1010 29.83 839 24.78 3.8 38.8 42 -8 17.6
16:30 1010 29.83 839 24.78 3.9 39 42 -8 17.6
16:35 1010 29.83 839 24.78 3.8 38.9 43 -7.6 18.3
16:40 1010 29.83 839 24.78 3.6 38.6 44 -7.5 18.5
16:45 1010 29.83 839 24.78 3.6 38.5 44 -7.4 18.7
16:50 1010 29.83 839 24.78 3.8 38.8 43 -7.7 18.2
16:55 1010 29.83 839 24.78 3.7 38.6 43 -7.6 18.3
17:00 1010 29.83 839 24.78 3.7 38.7 43 -7.6 18.3
17:05 1010 29.83 839 24.78 3.8 38.8 44 -7.3 18.9
17:10 1010 29.83 839 24.78 3.8 38.8 44 -7.3 18.9
17:15 1010 29.83 839 24.78 3.7 38.7 44 -7.3 18.9
17:20 1010 29.83 839 24.78 3.6 38.4 45 -7.4 18.7
17:25 1010 29.83 840 24.81 3.4 38 46 -7.2 19.1
17:30 1010 29.83 840 24.81 3.4 38.1 47 -6.8 19.8
17:35 1010 29.83 840 24.81 3.3 37.9 48 -6.8 19.7
17:40 1011 29.85 840 24.81 3.2 37.7 51 -6.1 21
17:45 1011 29.85 840 24.81 3 37.4 55 -5.3 22.4
17:50 1011 29.85 840 24.81 2.8 37 56 -5.1 22.8
17:55 1011 29.85 840 24.81 2.4 36.3 57 -5.2 22.6
18:00 1011 29.85 840 24.81 2.4 36.3 57 -5.2 22.7
18:05 1011 29.85 840 24.81 2.4 36.2 59 -4.8 23.4
18:10 1011 29.85 840 24.81 2.1 35.8 62 -4.4 24.2
18:15 1011 29.85 840 24.81 1.8 35.2 66 -3.9 25
18:20 1011 29.85 840 24.81 1.5 34.7 68 -3.8 25.1
18:25 1011 29.85 840 24.81 1.3 34.4 70 -3.6 25.5
18:30 1011 29.85 840 24.81 1.3 34.3 70 -3.5 25.7
18:35 1011 29.85 840 24.81 1.3 34.3 70 -3.6 25.5
18:40 1011 29.85 840 24.81 1.3 34.3 70 -3.7 25.4
18:45 1011 29.85 841 24.83 1.4 34.5 67 -4.2 24.5
18:50 1011 29.85 841 24.83 1.5 34.7 69 -3.6 25.6
18:55 1011 29.85 841 24.83 1.4 34.5 69 -3.7 25.3
19:00 1011 29.85 841 24.83 1.4 34.5 70 -3.4 25.8
19:05 1012 29.88 841 24.83 1.3 34.4 70 -3.5 25.6
19:10 1012 29.88 841 24.83 1.3 34.3 71 -3.5 25.8
19:15 1012 29.88 841 24.83 1 33.8 71 -3.6 25.5
19:20 1012 29.88 841 24.83 1 33.8 72 -3.5 25.7
19:25 1012 29.88 841 24.83 1 33.7 75 -3 26.5
19:30 1012 29.88 841 24.83 0.8 33.5 74 -3.2 26.2
19:35 1012 29.88 841 24.83 0.8 33.4 75 -3.2 26.3
19:40 1012 29.88 841 24.83 0.7 33.2 76 -3.1 26.4
19:45 1012 29.88 841 24.83 0.7 33.2 78 -2.7 27.1
19:50 1012 29.88 842 24.86 0.5 32.9 81 -2.4 27.7
19:55 1012 29.88 842 24.86 0.2 32.4 85 -2.1 28.3
20:00 1012 29.88 842 24.86 0.1 32.1 88 -1.7 28.9
20:05 1012 29.88 842 24.86 -0 31.9 88 -1.8 28.8
20:10 1013 29.91 842 24.86 -0.1 31.9 89 -1.7 28.9
20:15 1013 29.91 842 24.86 -0 31.9 89 -1.7 29
20:20 1013 29.91 842 24.86 -0.1 31.8 89 -1.7 29
20:25 1013 29.91 842 24.86 -0.2 31.7 90 -1.6 29.1
20:30 1013 29.91 842 24.86 -0.2 31.6 90 -1.6 29.1
20:35 1013 29.91 842 24.86 -0.2 31.6 91 -1.5 29.4
20:40 1013 29.91 842 24.86 -0.2 31.6 92 -1.4 29.5
20:45 1013 29.91 842 24.86 -0.2 31.6 91 -1.5 29.3
20:50 1013 29.91 842 24.86 -0.3 31.5 92 -1.5 29.3
20:55 1013 29.91 842 24.86 -0.2 31.6 92 -1.4 29.4
21:00 1013 29.91 842 24.86 -0.3 31.5 92 -1.5 29.3
21:05 1013 29.91 842 24.86 -0.4 31.4 92 -1.5 29.3
21:10 1013 29.91 842 24.86 -0.4 31.2 92 -1.6 29.2
21:15 1013 29.91 842 24.86 -0.5 31.2 92 -1.6 29.1
21:20 1013 29.91 842 24.86 -0.4 31.2 92 -1.5 29.3
21:25 1013 29.91 842 24.86 -0.2 31.7 91 -1.5 29.3
21:30 1013 29.91 842 24.86 -0.1 31.9 90 -1.5 29.3
21:35 1013 29.91 842 24.86 -0 32 90 -1.4 29.5
21:40 1013 29.91 842 24.86 -0 32 90 -1.5 29.4
21:45 1013 29.91 842 24.86 -0.2 31.7 91 -1.4 29.4
21:50 1013 29.91 842 24.86 -0.3 31.5 92 -1.5 29.3
21:55 1013 29.91 842 24.86 -0.4 31.2 91 -1.7 29
22:00 1013 29.91 842 24.86 -0.5 31.1 91 -1.7 28.9
22:05 1013 29.91 843 24.89 -0.5 31.2 90 -1.9 28.6
22:10 1013 29.91 843 24.89 -0.4 31.3 89 -2 28.4
22:15 1013 29.91 843 24.89 -0.3 31.5 88 -2.1 28.2
22:20 1013 29.91 843 24.89 -0.5 31.1 87 -2.4 27.7
22:25 1013 29.91 843 24.89 -0.6 30.9 86 -2.6 27.3
22:30 1013 29.91 843 24.89 -0.6 30.8 86 -2.7 27.1
22:35 1013 29.91 843 24.89 -0.6 31 85 -2.9 26.9
22:40 1013 29.91 843 24.89 -0.5 31.2 84 -2.9 26.7
22:45 1014 29.94 843 24.89 -0.2 31.7 82 -2.9 26.8
22:50 1014 29.94 843 24.89 0.2 32.4 75 -3.6 25.4
22:55 1014 29.94 843 24.89 0.5 32.9 67 -4.9 23.2
23:00 1014 29.94 843 24.89 0.8 33.5 68 -4.4 24.1
23:05 1014 29.94 843 24.89 0.9 33.6 68 -4.3 24.2
23:10 1014 29.94 843 24.89 0.9 33.6 68 -4.4 24.1
23:15 1014 29.94 843 24.89 0.9 33.7 69 -4.1 24.6
23:20 1014 29.94 843 24.89 0.9 33.7 69 -4.1 24.7
23:25 1014 29.94 843 24.89 0.9 33.6 71 -3.8 25.2
23:30 1014 29.94 843 24.89 0.9 33.6 72 -3.6 25.4
23:35 1014 29.94 843 24.89 0.9 33.7 72 -3.5 25.7
23:40 1014 29.94 843 24.89 0.9 33.6 74 -3.2 26.3
23:45 1014 29.94 843 24.89 0.7 33.3 75 -3.2 26.2
23:50 1014 29.94 843 24.89 0.7 33.3 73 -3.6 25.5
23:55 1014 29.94 844 24.92 0.7 33.3 72 -3.7 25.3
24:00 1014 29.94 844 24.92 0.7 33.2 72 -3.8 25.1